createdAt,value
2019-05-02T00:00:50.050Z,8.50
2019-05-02T00:03:19.049Z,8.50
2019-05-02T00:05:47.599Z,8.50
2019-05-02T00:08:16.164Z,8.50
2019-05-02T00:10:46.055Z,8.50
2019-05-02T00:13:14.531Z,8.50
2019-05-02T00:15:43.672Z,8.50
2019-05-02T00:21:01.469Z,8.40
2019-05-02T00:23:29.990Z,8.40
2019-05-02T00:25:58.468Z,8.40
2019-05-02T00:28:27.104Z,8.50
2019-05-02T00:30:55.637Z,8.50
2019-05-02T00:33:24.254Z,8.50
2019-05-02T00:35:52.817Z,8.40
2019-05-02T00:38:21.367Z,8.50
2019-05-02T00:40:50.022Z,8.40
2019-05-02T00:43:18.621Z,8.40
2019-05-02T00:45:47.192Z,8.40
2019-05-02T00:48:19.257Z,8.40
2019-05-02T00:50:50.848Z,8.30
2019-05-02T00:53:18.278Z,8.20
2019-05-02T00:55:46.823Z,8.20
2019-05-02T00:58:15.285Z,8.20
2019-05-02T01:01:01.808Z,8.20
2019-05-02T01:03:32.192Z,8.20
2019-05-02T01:06:01.121Z,8.20
2019-05-02T01:08:49.007Z,8.10
2019-05-02T01:11:17.749Z,8.00
2019-05-02T01:13:50.222Z,7.90
2019-05-02T01:16:19.089Z,7.90
2019-05-02T01:18:46.770Z,8.00
2019-05-02T01:21:15.247Z,8.00
2019-05-02T01:23:43.786Z,8.00
2019-05-02T01:26:12.284Z,8.00
2019-05-02T01:28:54.204Z,8.00
2019-05-02T01:31:23.091Z,8.00
2019-05-02T01:34:12.991Z,7.90
2019-05-02T01:36:46.907Z,7.90
2019-05-02T01:39:15.387Z,8.00
2019-05-02T01:41:43.865Z,7.90
2019-05-02T01:44:12.375Z,7.80
2019-05-02T01:46:40.915Z,7.80
2019-05-02T01:49:09.454Z,7.80
2019-05-02T01:51:41.961Z,7.70
2019-05-02T01:54:09.949Z,7.70
2019-05-02T01:56:38.918Z,7.70
2019-05-02T01:59:07.493Z,7.70
2019-05-02T02:01:36.440Z,7.70
2019-05-02T02:04:04.975Z,7.70
2019-05-02T02:06:33.473Z,7.70
2019-05-02T02:09:03.481Z,7.70
2019-05-02T02:11:35.673Z,7.70
2019-05-02T02:14:07.241Z,7.70
2019-05-02T02:16:39.331Z,7.60
2019-05-02T02:19:19.381Z,7.60
2019-05-02T02:22:07.626Z,7.60
2019-05-02T02:24:38.456Z,7.60
2019-05-02T02:27:07.126Z,7.50
2019-05-02T02:29:39.050Z,7.50
2019-05-02T02:32:06.172Z,7.50
2019-05-02T02:34:34.660Z,7.50
2019-05-02T02:37:05.626Z,7.40
2019-05-02T02:39:33.412Z,7.40
2019-05-02T02:42:02.000Z,7.30
2019-05-02T02:44:40.102Z,7.30
2019-05-02T02:47:11.998Z,7.20
2019-05-02T02:49:38.275Z,7.00
2019-05-02T02:52:07.041Z,6.90
2019-05-02T02:54:36.788Z,6.90
2019-05-02T02:57:06.119Z,7.00
2019-05-02T02:59:34.724Z,7.00
2019-05-02T03:02:10.186Z,7.00
2019-05-02T03:04:33.481Z,7.10
2019-05-02T03:07:02.082Z,7.00
2019-05-02T03:09:30.661Z,7.00
2019-05-02T03:12:17.005Z,7.00
2019-05-02T03:14:47.494Z,7.00
2019-05-02T03:17:20.634Z,7.00
2019-05-02T03:19:47.770Z,7.00
2019-05-02T03:22:16.244Z,7.00
2019-05-02T03:24:46.782Z,6.90
2019-05-02T03:27:15.007Z,6.90
2019-05-02T03:29:44.485Z,6.80
2019-05-02T03:32:30.738Z,6.60
2019-05-02T03:34:48.359Z,6.60
2019-05-02T03:37:14.826Z,6.60
2019-05-02T03:39:49.461Z,6.60
2019-05-02T03:42:13.776Z,6.50
2019-05-02T03:44:42.327Z,6.40
2019-05-02T03:47:10.947Z,6.40
2019-05-02T03:49:40.839Z,6.40
2019-05-02T03:52:10.450Z,6.40
2019-05-02T03:54:48.669Z,6.40
2019-05-02T03:57:09.655Z,6.30
2019-05-02T03:59:41.491Z,6.20
2019-05-02T04:02:13.890Z,6.20
2019-05-02T04:04:40.079Z,6.20
2019-05-02T04:07:09.189Z,6.20
2019-05-02T04:09:41.995Z,6.20
2019-05-02T04:12:17.805Z,6.10
2019-05-02T04:14:39.407Z,6.10
2019-05-02T04:17:10.527Z,6.00
2019-05-02T04:19:39.940Z,6.00
2019-05-02T04:22:11.883Z,6.10
2019-05-02T04:24:39.787Z,6.10
2019-05-02T04:27:08.788Z,6.20
2019-05-02T04:29:38.006Z,6.10
2019-05-02T04:32:11.419Z,6.20
2019-05-02T04:34:36.727Z,6.30
2019-05-02T04:37:05.310Z,6.40
2019-05-02T04:39:33.897Z,6.40
2019-05-02T04:42:05.287Z,6.40
2019-05-02T04:44:46.663Z,6.40
2019-05-02T04:47:11.013Z,6.40
2019-05-02T04:49:35.527Z,6.50
2019-05-02T04:52:10.427Z,6.50
2019-05-02T04:54:33.568Z,6.50
2019-05-02T04:57:02.758Z,6.50
2019-05-02T04:59:33.342Z,6.50
2019-05-02T05:02:02.029Z,6.60
2019-05-02T05:04:33.295Z,6.50
2019-05-02T05:07:01.278Z,6.40
2019-05-02T05:09:30.138Z,6.30
2019-05-02T05:12:02.388Z,6.30
2019-05-02T05:14:32.869Z,6.40
2019-05-02T05:16:59.081Z,6.30
2019-05-02T05:19:32.647Z,6.30
2019-05-02T05:22:04.518Z,6.40
2019-05-02T05:24:32.867Z,6.40
2019-05-02T05:27:00.741Z,6.50
2019-05-02T05:29:29.289Z,6.60
2019-05-02T05:32:05.438Z,6.80
2019-05-02T05:34:32.395Z,6.80
2019-05-02T05:36:58.413Z,6.80
2019-05-02T05:39:28.257Z,6.80
2019-05-02T05:41:57.818Z,7.00
2019-05-02T05:44:30.518Z,7.10
2019-05-02T05:46:58.150Z,7.20
2019-05-02T05:49:28.297Z,7.40
2019-05-02T05:52:02.254Z,7.50
2019-05-02T05:54:28.344Z,7.40
2019-05-02T05:56:57.467Z,7.50
2019-05-02T05:59:28.193Z,7.70
2019-05-02T06:01:57.990Z,7.80
2019-05-02T06:04:32.687Z,7.70
2019-05-02T06:07:02.143Z,7.80
2019-05-02T06:09:31.107Z,7.90
2019-05-02T06:11:58.951Z,8.00
2019-05-02T06:14:27.456Z,8.10
2019-05-02T06:16:55.973Z,8.20
2019-05-02T06:19:24.582Z,8.30
2019-05-02T06:21:53.099Z,8.30
2019-05-02T06:24:21.714Z,8.30
2019-05-02T06:26:51.776Z,8.40
2019-05-02T06:29:21.062Z,8.50
2019-05-02T06:31:49.772Z,8.60
2019-05-02T06:34:18.316Z,8.70
2019-05-02T06:36:46.848Z,8.60
2019-05-02T06:39:15.451Z,8.70
2019-05-02T06:41:43.972Z,8.70
2019-05-02T06:44:13.002Z,8.80
2019-05-02T06:46:41.696Z,9.00
2019-05-02T06:49:10.318Z,9.10
2019-05-02T06:51:38.837Z,9.30
2019-05-02T06:54:07.295Z,9.30
2019-05-02T06:56:35.774Z,9.30
2019-05-02T06:59:04.350Z,9.40
2019-05-02T07:01:33.156Z,9.50
2019-05-02T07:04:04.203Z,9.70
2019-05-02T07:06:42.423Z,9.60
2019-05-02T07:09:02.328Z,9.80
2019-05-02T07:11:33.208Z,9.70
2019-05-02T07:14:12.610Z,9.70
2019-05-02T07:16:38.563Z,9.70
2019-05-02T07:19:05.195Z,9.60
2019-05-02T07:21:33.736Z,9.60
2019-05-02T07:24:02.218Z,9.70
2019-05-02T07:26:30.714Z,9.90
2019-05-02T07:28:59.188Z,10.20
2019-05-02T07:31:27.682Z,10.70
2019-05-02T07:33:56.268Z,11.00
2019-05-02T07:36:25.587Z,11.00
2019-05-02T07:38:57.583Z,11.30
2019-05-02T07:41:28.926Z,11.40
2019-05-02T07:43:56.250Z,11.50
2019-05-02T07:46:24.765Z,11.50
2019-05-02T07:48:54.889Z,11.20
2019-05-02T07:51:24.212Z,11.20
2019-05-02T07:53:55.437Z,11.30
2019-05-02T07:56:23.008Z,11.50
2019-05-02T07:58:52.281Z,11.50
2019-05-02T08:01:20.756Z,11.70
2019-05-02T08:03:49.265Z,12.10
2019-05-02T08:06:17.791Z,12.40
2019-05-02T08:08:46.275Z,12.70
2019-05-02T08:11:14.862Z,12.60
2019-05-02T08:13:43.405Z,12.80
2019-05-02T08:16:11.892Z,12.90
2019-05-02T08:18:40.393Z,13.10
2019-05-02T08:21:08.914Z,13.50
2019-05-02T08:23:37.458Z,14.20
2019-05-02T08:26:06.092Z,14.50
2019-05-02T08:28:36.213Z,14.80
2019-05-02T08:31:04.856Z,15.20
2019-05-02T08:33:34.614Z,15.40
2019-05-02T08:36:03.627Z,15.00
2019-05-02T08:38:32.101Z,15.10
2019-05-02T08:41:00.630Z,15.40
2019-05-02T08:43:29.385Z,15.30
2019-05-02T08:45:57.975Z,15.40
2019-05-02T08:48:26.480Z,16.00
2019-05-02T08:50:55.056Z,16.10
2019-05-02T08:53:23.531Z,16.50
2019-05-02T08:55:52.202Z,17.10
2019-05-02T08:58:20.826Z,17.50
2019-05-02T09:00:49.385Z,17.50
2019-05-02T09:03:19.485Z,17.20
2019-05-02T09:05:48.037Z,17.40
2019-05-02T09:08:16.834Z,17.60
2019-05-02T09:10:46.380Z,17.70
2019-05-02T09:13:17.906Z,18.00
2019-05-02T09:15:49.757Z,18.10
2019-05-02T09:18:15.603Z,18.30
2019-05-02T09:20:47.097Z,18.20
2019-05-02T09:23:14.296Z,18.10
2019-05-02T09:25:43.114Z,17.60
2019-05-02T09:28:12.480Z,18.30
2019-05-02T09:30:41.851Z,18.80
2019-05-02T09:33:11.719Z,19.00
2019-05-02T09:35:42.185Z,18.80
2019-05-02T09:38:12.977Z,18.70
2019-05-02T09:40:42.625Z,18.90
2019-05-02T09:43:12.228Z,18.80
2019-05-02T09:45:41.810Z,19.40
2019-05-02T09:48:12.638Z,19.70
2019-05-02T09:50:42.190Z,20.00
2019-05-02T09:53:13.259Z,20.30
2019-05-02T09:55:49.126Z,20.40
2019-05-02T09:58:19.572Z,20.20
2019-05-02T10:00:43.448Z,20.60
2019-05-02T10:03:12.337Z,20.50
2019-05-02T10:05:42.874Z,20.50
2019-05-02T10:08:13.910Z,20.60
2019-05-02T10:10:45.873Z,19.90
2019-05-02T10:13:13.076Z,19.20
2019-05-02T10:15:42.178Z,18.60
2019-05-02T10:18:14.133Z,18.40
2019-05-02T10:20:42.799Z,18.80
2019-05-02T10:23:19.051Z,18.80
2019-05-02T10:25:46.617Z,19.00
2019-05-02T10:28:13.040Z,19.30
2019-05-02T10:30:42.686Z,19.20
2019-05-02T10:33:12.402Z,19.40
2019-05-02T10:35:43.430Z,19.40
2019-05-02T10:38:15.138Z,18.90
2019-05-02T10:40:42.552Z,19.30
2019-05-02T10:43:11.865Z,19.00
2019-05-02T10:45:42.628Z,18.80
2019-05-02T10:48:22.854Z,17.80
2019-05-02T10:50:52.576Z,17.70
2019-05-02T10:53:21.920Z,17.50
2019-05-02T10:55:52.368Z,17.20
2019-05-02T10:58:25.841Z,17.10
2019-05-02T11:00:52.319Z,16.80
2019-05-02T11:03:25.572Z,16.80
2019-05-02T11:05:58.042Z,16.60
2019-05-02T11:08:25.978Z,16.60
2019-05-02T11:10:54.597Z,16.50
2019-05-02T11:13:27.797Z,16.40
2019-05-02T11:16:14.166Z,16.40
2019-05-02T11:18:56.529Z,16.30
2019-05-02T11:21:25.081Z,16.20
2019-05-02T11:23:53.691Z,16.10
2019-05-02T11:26:25.010Z,15.90
2019-05-02T11:28:52.438Z,15.70
2019-05-02T11:31:21.841Z,15.40
2019-05-02T11:33:52.677Z,15.20
2019-05-02T11:36:22.534Z,15.10
2019-05-02T11:38:59.793Z,15.20
2019-05-02T11:41:22.381Z,15.20
2019-05-02T11:43:54.110Z,15.10
2019-05-02T11:46:22.064Z,15.00
2019-05-02T11:48:56.459Z,15.00
2019-05-02T11:51:22.741Z,15.10
2019-05-02T11:53:52.743Z,15.10
2019-05-02T11:56:22.292Z,15.10
2019-05-02T11:58:52.641Z,15.10
2019-05-02T12:01:35.045Z,15.10
2019-05-02T12:03:54.365Z,15.20
2019-05-02T12:06:23.072Z,15.40
2019-05-02T12:08:52.515Z,15.40
2019-05-02T12:11:22.811Z,15.60
2019-05-02T12:13:56.815Z,15.90
2019-05-02T12:16:23.111Z,16.10
2019-05-02T12:18:53.821Z,16.20
2019-05-02T12:21:22.943Z,16.20
2019-05-02T12:23:52.680Z,16.20
2019-05-02T12:26:22.206Z,16.70
2019-05-02T12:28:52.688Z,17.10
2019-05-02T12:31:26.852Z,17.00
2019-05-02T12:33:56.388Z,16.60
2019-05-02T12:36:24.952Z,16.60
2019-05-02T12:38:53.559Z,16.30
2019-05-02T12:41:24.993Z,16.20
2019-05-02T12:43:52.613Z,16.10
2019-05-02T12:46:22.148Z,16.10
2019-05-02T12:48:51.958Z,15.80
2019-05-02T12:51:22.537Z,15.90
2019-05-02T12:53:52.889Z,15.90
2019-05-02T12:56:22.934Z,15.90
2019-05-02T12:58:52.974Z,16.00
2019-05-02T13:01:22.106Z,16.00
2019-05-02T13:04:04.476Z,16.00
2019-05-02T13:06:33.201Z,16.20
2019-05-02T13:09:03.087Z,16.20
2019-05-02T13:11:52.160Z,16.10
2019-05-02T13:14:22.503Z,15.90
2019-05-02T13:16:53.561Z,15.80
2019-05-02T13:19:23.675Z,15.60
2019-05-02T13:22:09.891Z,15.60
2019-05-02T13:24:42.220Z,15.40
2019-05-02T13:27:12.599Z,15.00
2019-05-02T13:29:44.686Z,14.60
2019-05-02T13:32:18.718Z,14.20
2019-05-02T13:34:48.566Z,14.10
2019-05-02T13:37:20.036Z,14.00
2019-05-02T13:39:59.242Z,13.90
2019-05-02T13:42:27.781Z,13.80
2019-05-02T13:44:58.066Z,13.90
2019-05-02T13:47:27.725Z,13.90
2019-05-02T13:50:00.639Z,13.90
2019-05-02T13:52:28.123Z,14.00
2019-05-02T13:54:56.749Z,14.00
2019-05-02T13:57:25.326Z,14.00
2019-05-02T13:59:53.868Z,14.00
2019-05-02T14:02:37.114Z,14.20
2019-05-02T14:05:12.760Z,14.20
2019-05-02T14:07:43.010Z,14.10
2019-05-02T14:10:14.159Z,14.10
2019-05-02T14:13:03.347Z,14.30
2019-05-02T14:15:33.899Z,14.50
2019-05-02T14:18:02.670Z,14.70
2019-05-02T14:20:33.130Z,14.60
2019-05-02T14:23:02.233Z,14.60
2019-05-02T14:25:32.294Z,14.50
2019-05-02T14:28:02.678Z,14.50
2019-05-02T14:30:37.170Z,14.50
2019-05-02T14:33:03.130Z,14.50
2019-05-02T14:35:36.427Z,14.40
2019-05-02T14:38:09.367Z,14.50
2019-05-02T14:40:42.465Z,14.50
2019-05-02T14:43:12.907Z,14.40
2019-05-02T14:45:43.767Z,14.50
2019-05-02T14:48:21.011Z,14.40
2019-05-02T14:50:45.646Z,14.30
2019-05-02T14:53:16.895Z,14.40
2019-05-02T14:55:45.620Z,14.40
2019-05-02T14:58:14.166Z,14.40
2019-05-02T15:00:47.931Z,14.50
2019-05-02T15:03:14.524Z,14.50
2019-05-02T15:05:43.113Z,14.60
2019-05-02T15:08:11.888Z,14.80
2019-05-02T15:10:50.746Z,14.90
2019-05-02T15:13:12.477Z,14.80
2019-05-02T15:15:43.107Z,14.70
2019-05-02T15:18:13.465Z,14.60
2019-05-02T15:20:42.384Z,14.50
2019-05-02T15:23:14.347Z,14.60
2019-05-02T15:25:42.387Z,14.50
2019-05-02T15:28:13.089Z,14.60
2019-05-02T15:30:48.120Z,14.50
2019-05-02T15:33:17.147Z,14.50
2019-05-02T15:36:02.157Z,14.40
2019-05-02T15:38:29.402Z,14.30
2019-05-02T15:40:59.194Z,14.30
2019-05-02T15:43:28.178Z,14.40
2019-05-02T15:45:56.735Z,14.40
2019-05-02T15:48:27.417Z,14.60
2019-05-02T15:50:59.931Z,14.60
2019-05-02T15:53:33.578Z,14.70
2019-05-02T15:56:02.205Z,14.70
2019-05-02T15:58:32.498Z,14.80
2019-05-02T16:01:17.696Z,14.90
2019-05-02T16:03:53.469Z,14.60
2019-05-02T16:06:30.317Z,14.60
2019-05-02T16:08:52.339Z,14.60
2019-05-02T16:11:22.932Z,14.50
2019-05-02T16:13:55.828Z,14.60
2019-05-02T16:16:23.083Z,14.60
2019-05-02T16:18:52.589Z,14.70
2019-05-02T16:21:32.658Z,14.80
2019-05-02T16:24:22.470Z,14.80
2019-05-02T16:26:53.104Z,14.70
2019-05-02T16:29:26.772Z,14.60
2019-05-02T16:32:16.476Z,14.50
2019-05-02T16:34:58.522Z,14.50
2019-05-02T16:37:27.088Z,14.40
2019-05-02T16:39:55.651Z,14.40
2019-05-02T16:42:24.278Z,14.20
2019-05-02T16:44:54.847Z,14.20
2019-05-02T16:47:22.979Z,14.10
2019-05-02T16:49:53.141Z,14.20
2019-05-02T16:52:22.167Z,14.30
2019-05-02T16:54:52.661Z,14.30
2019-05-02T16:57:22.201Z,14.30
2019-05-02T16:59:53.886Z,14.50
2019-05-02T17:02:21.869Z,14.50
2019-05-02T17:04:54.237Z,14.60
2019-05-02T17:07:22.723Z,14.60
2019-05-02T17:09:55.899Z,14.60
2019-05-02T17:12:24.413Z,14.70
2019-05-02T17:15:13.767Z,14.60
2019-05-02T17:17:42.326Z,14.40
2019-05-02T17:20:12.840Z,14.30
2019-05-02T17:22:43.895Z,14.30
2019-05-02T17:25:12.341Z,14.10
2019-05-02T17:27:42.307Z,14.10
2019-05-02T17:30:12.264Z,14.20
2019-05-02T17:32:41.535Z,14.20
2019-05-02T17:35:14.450Z,14.20
2019-05-02T17:37:48.581Z,14.20
2019-05-02T17:40:12.329Z,14.30
2019-05-02T17:42:44.444Z,14.20
2019-05-02T17:45:12.920Z,14.10
2019-05-02T17:47:41.534Z,13.90
2019-05-02T17:50:17.787Z,13.80
2019-05-02T17:52:56.177Z,13.80
2019-05-02T17:55:25.983Z,13.70
2019-05-02T17:57:54.468Z,13.60
2019-05-02T18:00:24.686Z,13.60
2019-05-02T18:02:53.406Z,13.60
2019-05-02T18:05:26.565Z,13.60
2019-05-02T18:07:52.704Z,13.50
2019-05-02T18:10:25.027Z,13.40
2019-05-02T18:12:59.872Z,13.40
2019-05-02T18:15:29.889Z,13.40
2019-05-02T18:17:59.688Z,13.40
2019-05-02T18:20:27.795Z,13.20
2019-05-02T18:22:56.281Z,13.10
2019-05-02T18:25:25.404Z,13.10
2019-05-02T18:27:54.023Z,13.10
2019-05-02T18:30:26.707Z,13.00
2019-05-02T18:32:57.633Z,12.90
2019-05-02T18:35:23.346Z,12.90
2019-05-02T18:37:51.961Z,12.80
2019-05-02T18:40:27.707Z,12.80
2019-05-02T18:42:51.959Z,12.70
2019-05-02T18:45:28.502Z,12.70
2019-05-02T18:48:02.363Z,12.70
2019-05-02T18:50:28.424Z,12.60
2019-05-02T18:52:57.141Z,12.50
2019-05-02T18:55:26.095Z,12.40
2019-05-02T18:57:57.131Z,12.30
2019-05-02T19:00:27.847Z,12.30
2019-05-02T19:02:56.624Z,12.20
2019-05-02T19:05:26.578Z,12.00
2019-05-02T19:07:56.536Z,12.00
2019-05-02T19:10:25.526Z,11.90
2019-05-02T19:12:56.176Z,11.90
2019-05-02T19:15:24.572Z,11.80
2019-05-02T19:17:53.209Z,11.80
2019-05-02T19:20:24.760Z,11.80
2019-05-02T19:22:56.822Z,11.70
2019-05-02T19:25:23.606Z,11.70
2019-05-02T19:27:57.732Z,11.70
2019-05-02T19:30:32.974Z,11.70
2019-05-02T19:33:03.613Z,11.60
2019-05-02T19:35:32.805Z,11.60
2019-05-02T19:38:02.532Z,11.50
2019-05-02T19:40:31.823Z,11.40
2019-05-02T19:43:05.977Z,11.40
2019-05-02T19:45:32.763Z,11.30
2019-05-02T19:48:02.664Z,11.30
2019-05-02T19:50:43.109Z,11.30
2019-05-02T19:53:14.965Z,11.40
2019-05-02T19:55:37.682Z,11.30
2019-05-02T19:58:06.913Z,11.40
2019-05-02T20:00:36.610Z,11.30
2019-05-02T20:03:06.287Z,11.30
2019-05-02T20:05:34.868Z,11.20
2019-05-02T20:08:03.550Z,11.10
2019-05-02T20:10:32.366Z,11.10
2019-05-02T20:13:03.107Z,11.10
2019-05-02T20:15:33.029Z,11.00
2019-05-02T20:18:04.818Z,11.00
2019-05-02T20:20:51.958Z,11.00
2019-05-02T20:23:28.308Z,11.00
2019-05-02T20:25:52.218Z,11.00
2019-05-02T20:28:21.863Z,11.00
2019-05-02T20:30:52.525Z,10.90
2019-05-02T20:33:22.272Z,10.90
2019-05-02T20:35:52.815Z,10.80
2019-05-02T20:38:22.030Z,10.80
2019-05-02T20:40:52.180Z,10.90
2019-05-02T20:43:22.638Z,10.90
2019-05-02T20:45:52.840Z,11.00
2019-05-02T20:48:22.811Z,11.00
2019-05-02T20:50:52.196Z,11.10
2019-05-02T20:53:30.715Z,11.10
2019-05-02T20:55:52.451Z,11.10
2019-05-02T20:58:22.047Z,11.10
2019-05-02T21:01:04.988Z,11.10
2019-05-02T21:03:21.446Z,11.20
2019-05-02T21:06:07.043Z,11.20
2019-05-02T21:08:41.868Z,11.20
2019-05-02T21:11:12.317Z,11.20
2019-05-02T21:13:41.840Z,11.20
2019-05-02T21:16:12.132Z,11.20
2019-05-02T21:18:42.317Z,11.20
2019-05-02T21:21:12.611Z,11.20
2019-05-02T21:23:47.087Z,11.20
2019-05-02T21:26:11.747Z,11.20
2019-05-02T21:28:40.313Z,11.20
2019-05-02T21:31:08.899Z,11.20
2019-05-02T21:33:39.438Z,11.20
2019-05-02T21:36:08.138Z,11.20
2019-05-02T21:38:37.263Z,11.10
2019-05-02T21:41:11.098Z,11.20
2019-05-02T21:43:39.765Z,11.10
2019-05-02T21:46:08.383Z,11.10
2019-05-02T21:48:37.045Z,11.00
2019-05-02T21:51:12.005Z,11.10
2019-05-02T21:53:58.361Z,11.10
2019-05-02T21:56:28.824Z,11.00
2019-05-02T21:59:07.275Z,11.00
2019-05-02T22:01:42.082Z,10.90
2019-05-02T22:04:12.915Z,11.00
2019-05-02T22:06:42.753Z,11.00
2019-05-02T22:09:12.331Z,11.00
2019-05-02T22:11:42.900Z,11.00
2019-05-02T22:14:13.384Z,11.00
2019-05-02T22:16:42.584Z,10.90
2019-05-02T22:19:11.138Z,10.90
2019-05-02T22:21:39.876Z,10.90
2019-05-02T22:24:11.774Z,10.80
2019-05-02T22:26:38.731Z,10.80
2019-05-02T22:29:07.384Z,10.70
2019-05-02T22:31:35.952Z,10.70
2019-05-02T22:34:04.864Z,10.70
2019-05-02T22:36:33.464Z,10.70
2019-05-02T22:39:03.682Z,10.80
2019-05-02T22:41:32.668Z,10.70
2019-05-02T22:44:01.953Z,10.70
2019-05-02T22:46:42.896Z,10.80
2019-05-02T22:49:14.481Z,10.80
2019-05-02T22:51:43.311Z,10.80
2019-05-02T22:54:24.270Z,10.80
2019-05-02T22:56:43.748Z,10.90
2019-05-02T22:59:12.321Z,10.90
2019-05-02T23:01:42.159Z,10.90
2019-05-02T23:04:12.826Z,10.90
2019-05-02T23:06:43.813Z,10.80
2019-05-02T23:09:12.652Z,10.80
2019-05-02T23:11:42.619Z,10.70
2019-05-02T23:14:11.779Z,10.70
2019-05-02T23:16:42.720Z,10.70
2019-05-02T23:19:12.252Z,10.70
2019-05-02T23:21:42.287Z,10.80
2019-05-02T23:24:14.539Z,10.70
2019-05-02T23:26:47.222Z,10.70
2019-05-02T23:29:17.790Z,10.70
2019-05-02T23:31:46.363Z,10.70
2019-05-02T23:34:15.074Z,10.70
2019-05-02T23:36:43.660Z,10.70
2019-05-02T23:39:12.606Z,10.70
2019-05-02T23:41:42.090Z,10.70
2019-05-02T23:44:12.237Z,10.60
2019-05-02T23:46:42.354Z,10.70
2019-05-02T23:49:12.790Z,10.70
2019-05-02T23:51:42.670Z,10.70
2019-05-02T23:54:12.772Z,10.70
2019-05-02T23:56:43.007Z,10.70
2019-05-02T23:59:12.288Z,10.70
